Time;durP1;ratioP1;P1;durP2;ratioP2;P2;SDS_P1;SDS_P2;PMS_P1;PMS_P2;Temp;Humidity;BMP_temperature;BMP_pressure;BME280_temperature;BME280_humidity;BME280_pressure;Samples;Min_cycle;Max_cycle;Signal;HPM_P1;HPM_P2
2023/03/02 00:01:37;;;;;;;21.65;10.73;;;1.00;42.10;;;;;;5011944;28;20547;-72
2023/03/02 00:04:04;;;;;;;20.77;11.00;;;1.00;42.40;;;;;;5012262;28;20393;-73
2023/03/02 00:06:32;;;;;;;19.50;11.13;;;0.90;43.30;;;;;;4994001;28;20401;-72
2023/03/02 00:08:59;;;;;;;16.63;10.70;;;1.10;42.60;;;;;;5011956;28;20488;-72
2023/03/02 00:11:29;;;;;;;17.38;10.23;;;1.20;42.70;;;;;;5011621;28;20857;-71
2023/03/02 00:13:54;;;;;;;19.37;10.23;;;1.10;41.80;;;;;;5012106;28;20400;-73
2023/03/02 00:16:20;;;;;;;17.48;10.57;;;1.00;42.90;;;;;;5011854;28;20413;-72
2023/03/02 00:18:45;;;;;;;22.17;11.40;;;0.90;44.00;;;;;;5012051;28;20388;-72
2023/03/02 00:21:11;;;;;;;19.40;10.53;;;1.00;44.40;;;;;;5011660;28;20396;-71
2023/03/02 00:23:37;;;;;;;19.57;11.07;;;1.00;43.90;;;;;;5011998;28;20408;-72
2023/03/02 00:26:03;;;;;;;20.95;10.77;;;1.30;42.00;;;;;;5012811;28;20400;-74
2023/03/02 00:28:29;;;;;;;17.58;10.27;;;1.30;40.50;;;;;;5012091;28;20526;-72
2023/03/02 00:30:55;;;;;;;17.07;10.47;;;1.40;40.70;;;;;;5011416;28;20401;-74
2023/03/02 00:33:20;;;;;;;19.90;10.57;;;1.40;40.80;;;;;;5011697;28;20404;-73
2023/03/02 00:35:46;;;;;;;18.15;10.75;;;1.50;39.30;;;;;;5011366;28;20413;-73
2023/03/02 00:38:12;;;;;;;20.33;10.40;;;1.40;39.40;;;;;;5011306;28;20395;-72
2023/03/02 00:40:42;;;;;;;18.58;10.43;;;1.10;40.50;;;;;;5011625;28;20392;-73
2023/03/02 00:43:08;;;;;;;18.88;11.20;;;0.90;42.70;;;;;;5011689;28;20757;-73
2023/03/02 00:45:33;;;;;;;21.77;11.03;;;0.80;44.30;;;;;;5011433;28;20380;-72
2023/03/02 00:47:59;;;;;;;20.90;11.23;;;0.80;44.50;;;;;;5012008;28;20384;-73
2023/03/02 00:50:24;;;;;;;22.30;11.23;;;1.10;44.50;;;;;;5011675;28;20388;-72
2023/03/02 00:52:50;;;;;;;20.58;12.10;;;1.40;41.30;;;;;;5011169;28;20396;-71
2023/03/02 00:55:15;;;;;;;19.63;10.90;;;1.30;42.00;;;;;;5012179;28;20408;-73
2023/03/02 00:57:41;;;;;;;20.73;11.48;;;1.10;43.30;;;;;;5011602;28;20381;-73
2023/03/02 01:00:08;;;;;;;19.53;10.90;;;1.00;44.40;;;;;;4994035;28;20396;-72
2023/03/02 01:02:33;;;;;;;19.73;11.07;;;1.10;42.50;;;;;;4994006;28;20983;-72
2023/03/02 01:04:59;;;;;;;19.08;11.15;;;1.40;42.70;;;;;;5011709;28;20385;-73
2023/03/02 01:07:27;;;;;;;19.33;10.40;;;1.20;42.20;;;;;;5011274;28;20381;-73
2023/03/02 01:09:52;;;;;;;20.00;11.45;;;0.90;43.80;;;;;;5011122;28;20464;-73
2023/03/02 01:12:18;;;;;;;18.77;10.23;;;0.80;45.10;;;;;;5011094;28;20472;-72
2023/03/02 01:14:46;;;;;;;19.08;11.00;;;0.90;45.00;;;;;;5010916;28;20399;-72
2023/03/02 01:17:13;;;;;;;19.48;9.70;;;1.20;43.10;;;;;;5011105;28;20412;-73
2023/03/02 01:19:39;;;;;;;17.63;10.50;;;1.60;39.70;;;;;;5011127;28;20389;-73
2023/03/02 01:22:06;;;;;;;20.17;11.15;;;1.50;38.70;;;;;;5010812;28;20376;-73
2023/03/02 01:24:32;;;;;;;19.27;10.30;;;1.50;39.00;;;;;;5010987;28;20376;-72
2023/03/02 01:26:58;;;;;;;17.92;9.70;;;1.50;38.80;;;;;;5010854;28;20468;-72
2023/03/02 01:29:24;;;;;;;20.27;10.70;;;1.70;37.70;;;;;;5011960;28;20490;-72
2023/03/02 01:31:49;;;;;;;14.10;9.43;;;1.90;36.80;;;;;;4997269;28;20480;-73
2023/03/02 01:34:15;;;;;;;19.98;10.32;;;1.80;36.50;;;;;;5029864;28;20470;-72
2023/03/02 01:36:44;;;;;;;18.77;10.17;;;1.80;36.60;;;;;;4996986;28;20455;-73
2023/03/02 01:39:14;;;;;;;15.48;9.82;;;1.80;36.30;;;;;;4996925;28;20427;-73
2023/03/02 01:41:43;;;;;;;18.88;10.15;;;1.90;36.30;;;;;;4996483;28;20408;-72
2023/03/02 01:44:32;;;;;;;19.25;10.50;;;1.80;36.40;;;;;;5014464;28;20431;-73
2023/03/02 01:46:58;;;;;;;18.60;10.63;;;1.60;37.60;;;;;;5002683;28;20392;-73
2023/03/02 01:49:24;;;;;;;19.13;10.70;;;1.30;39.40;;;;;;5014696;28;20458;-73
2023/03/02 01:51:51;;;;;;;18.63;9.82;;;1.50;39.20;;;;;;5014181;28;20477;-73
2023/03/02 01:54:21;;;;;;;18.27;10.33;;;1.60;38.60;;;;;;5014440;28;20415;-72
2023/03/02 01:56:51;;;;;;;16.58;9.60;;;1.60;37.90;;;;;;5014232;28;20404;-72
2023/03/02 01:59:19;;;;;;;23.30;10.43;;;1.40;38.60;;;;;;5014456;28;20435;-72
2023/03/02 02:01:50;;;;;;;22.17;11.20;;;1.40;38.50;;;;;;5013405;28;20734;-73
2023/03/02 02:04:16;;;;;;;20.60;10.20;;;1.40;38.80;;;;;;5013972;28;20384;-73
2023/03/02 02:07:08;;;;;;;18.00;10.57;;;1.40;38.20;;;;;;5013944;28;20395;-73
2023/03/02 02:09:55;;;;;;;18.60;9.98;;;1.40;38.00;;;;;;5010029;28;20440;-72
2023/03/02 02:12:24;;;;;;;18.97;9.80;;;1.30;38.50;;;;;;4996478;28;20393;-74
2023/03/02 02:14:50;;;;;;;17.25;10.45;;;1.00;40.20;;;;;;5013512;28;20416;-72
2023/03/02 02:17:17;;;;;;;22.37;10.40;;;0.80;41.40;;;;;;5013361;28;20443;-72
2023/03/02 02:20:06;;;;;;;19.10;10.60;;;0.50;43.90;;;;;;5013821;28;20392;-72
2023/03/02 02:23:07;;;;;;;19.65;10.85;;;0.50;45.70;;;;;;5013198;28;20377;-71
2023/03/02 02:25:57;;;;;;;22.10;11.02;;;0.90;42.70;;;;;;4933212;29;20395;-72
2023/03/02 02:28:33;;;;;;;19.20;10.15;;;0.90;41.40;;;;;;5010034;28;20499;-72
2023/03/02 02:31:16;;;;;;;17.50;10.02;;;1.20;40.30;;;;;;5013822;28;20482;-72
2023/03/02 02:33:45;;;;;;;18.30;10.60;;;1.30;39.70;;;;;;5013170;28;20389;-72
2023/03/02 02:36:20;;;;;;;18.53;10.00;;;1.30;39.00;;;;;;5013886;28;20551;-72
2023/03/02 02:38:48;;;;;;;20.83;10.48;;;1.30;39.20;;;;;;5013644;28;20392;-72
2023/03/02 02:41:21;;;;;;;21.15;10.65;;;1.40;39.10;;;;;;5011881;28;20397;-73
2023/03/02 02:43:47;;;;;;;19.80;10.70;;;1.40;38.20;;;;;;5013146;28;20414;-72
2023/03/02 02:46:12;;;;;;;20.60;9.97;;;1.50;37.60;;;;;;5013353;28;20393;-72
2023/03/02 02:48:38;;;;;;;19.60;9.43;;;1.50;37.10;;;;;;5012983;28;20451;-72
2023/03/02 02:51:07;;;;;;;17.73;9.68;;;1.50;37.80;;;;;;5012894;28;20896;-72
2023/03/02 02:53:57;;;;;;;18.45;10.48;;;1.40;37.50;;;;;;5013077;28;20476;-73
2023/03/02 02:56:25;;;;;;;22.20;9.40;;;1.40;37.70;;;;;;5012938;28;20772;-72
2023/03/02 02:58:54;;;;;;;14.57;9.02;;;1.40;37.60;;;;;;5012762;28;20377;-71
2023/03/02 03:01:25;;;;;;;17.92;9.68;;;1.40;37.30;;;;;;5012429;28;20384;-72
2023/03/02 03:03:56;;;;;;;15.68;9.05;;;1.40;37.30;;;;;;5012651;28;20786;-72
2023/03/02 03:06:25;;;;;;;16.92;9.55;;;1.40;36.90;;;;;;5012223;28;20389;-73
2023/03/02 03:08:55;;;;;;;20.80;9.40;;;1.40;37.20;;;;;;5012289;28;20456;-72
2023/03/02 03:11:25;;;;;;;16.67;9.50;;;1.40;37.20;;;;;;4994398;28;20972;-71
2023/03/02 03:14:04;;;;;;;18.88;10.05;;;1.40;36.70;;;;;;5013387;28;20392;-72
2023/03/02 03:16:32;;;;;;;17.90;10.00;;;1.40;37.10;;;;;;5018870;28;20582;-72
2023/03/02 03:19:09;;;;;;;17.90;9.10;;;1.40;37.00;;;;;;5014620;28;20476;-72
2023/03/02 03:21:35;;;;;;;20.17;10.15;;;1.50;36.70;;;;;;5012053;28;20385;-73
2023/03/02 03:24:01;;;;;;;18.88;9.73;;;1.40;36.50;;;;;;5012568;28;20818;-73
2023/03/02 03:26:26;;;;;;;15.18;9.38;;;1.40;36.70;;;;;;5012616;28;20401;-74
2023/03/02 03:28:52;;;;;;;17.27;9.85;;;1.40;36.50;;;;;;5013294;28;20438;-73
2023/03/02 03:31:17;;;;;;;18.40;9.70;;;1.50;35.90;;;;;;5012442;28;20385;-73
2023/03/02 03:33:43;;;;;;;20.20;10.43;;;1.50;35.80;;;;;;5011920;28;20400;-72
2023/03/02 03:36:09;;;;;;;17.52;8.90;;;1.60;35.70;;;;;;5012408;28;20405;-72
2023/03/02 03:38:34;;;;;;;18.37;10.00;;;1.60;35.60;;;;;;5011740;28;20793;-72
2023/03/02 03:41:00;;;;;;;18.87;9.73;;;1.50;35.80;;;;;;5011901;28;20712;-72
2023/03/02 03:43:25;;;;;;;17.43;9.40;;;1.50;36.00;;;;;;5012038;28;20427;-72
2023/03/02 03:45:51;;;;;;;17.42;9.60;;;1.50;35.80;;;;;;5011601;28;20438;-72
2023/03/02 03:48:17;;;;;;;14.85;9.20;;;1.40;36.20;;;;;;5012077;28;20392;-72
2023/03/02 03:50:43;;;;;;;18.20;9.52;;;1.40;36.00;;;;;;5011917;28;20424;-72
2023/03/02 03:53:09;;;;;;;15.40;9.05;;;1.50;35.60;;;;;;5011455;28;20396;-72
2023/03/02 03:55:34;;;;;;;16.47;9.00;;;1.50;35.60;;;;;;5011561;28;20423;-73
2023/03/02 03:58:00;;;;;;;16.85;9.60;;;1.50;35.50;;;;;;5011398;28;20480;-72
2023/03/02 04:00:25;;;;;;;15.00;8.93;;;1.40;35.70;;;;;;5011956;28;20397;-72
2023/03/02 04:02:51;;;;;;;17.42;9.00;;;1.40;35.40;;;;;;5011372;28;20385;-72
2023/03/02 04:05:17;;;;;;;16.70;9.37;;;1.50;35.00;;;;;;5011741;28;20389;-71
2023/03/02 04:07:42;;;;;;;22.77;9.10;;;1.40;34.80;;;;;;5011554;28;20431;-72
2023/03/02 04:10:09;;;;;;;16.80;9.90;;;1.30;35.50;;;;;;4994031;28;20515;-72
2023/03/02 04:12:39;;;;;;;16.00;9.45;;;1.30;35.90;;;;;;5012081;28;20464;-73
2023/03/02 04:15:07;;;;;;;19.67;9.65;;;1.30;35.70;;;;;;5011740;28;20870;-72
2023/03/02 04:17:32;;;;;;;13.68;8.23;;;1.40;35.20;;;;;;4994023;28;21032;-72
2023/03/02 04:19:58;;;;;;;16.27;9.10;;;1.40;34.70;;;;;;5011714;28;20476;-72
2023/03/02 04:22:24;;;;;;;16.55;9.10;;;1.50;34.20;;;;;;5011570;28;20866;-72
2023/03/02 04:24:50;;;;;;;21.40;10.00;;;1.50;34.10;;;;;;5011257;28;20381;-73
2023/03/02 04:27:17;;;;;;;17.27;9.50;;;1.40;34.20;;;;;;5011806;28;20424;-73
2023/03/02 04:29:43;;;;;;;17.20;8.80;;;1.30;34.90;;;;;;5011576;28;20384;-73
2023/03/02 04:32:09;;;;;;;26.23;9.80;;;1.30;35.00;;;;;;5012111;28;20493;-72
2023/03/02 04:34:35;;;;;;;16.27;8.53;;;1.40;34.60;;;;;;4993745;28;20475;-72
2023/03/02 04:37:01;;;;;;;12.70;8.48;;;1.40;34.30;;;;;;4993146;28;20823;-72
2023/03/02 04:39:26;;;;;;;16.77;8.77;;;1.40;33.80;;;;;;5019765;28;20472;-72
2023/03/02 04:41:52;;;;;;;16.43;8.37;;;1.40;33.90;;;;;;5021323;28;20430;-71
2023/03/02 04:44:19;;;;;;;18.88;9.95;;;1.40;34.00;;;;;;5018547;28;20389;-73
2023/03/02 04:46:45;;;;;;;16.55;8.50;;;1.30;34.50;;;;;;5017007;28;20408;-72
2023/03/02 04:49:12;;;;;;;13.45;8.07;;;1.30;34.50;;;;;;5012592;28;20397;-73
2023/03/02 04:51:40;;;;;;;12.98;8.38;;;1.30;34.70;;;;;;5013826;28;20456;-73
2023/03/02 04:54:17;;;;;;;18.10;9.00;;;1.20;35.30;;;;;;5012548;28;20381;-73
2023/03/02 04:56:43;;;;;;;20.17;8.93;;;1.20;35.10;;;;;;4993586;28;20757;-72
2023/03/02 04:59:10;;;;;;;14.77;8.13;;;1.20;34.60;;;;;;5011278;28;20733;-73
2023/03/02 05:01:35;;;;;;;16.42;9.00;;;1.10;35.30;;;;;;5011085;28;20464;-72
2023/03/02 05:04:01;;;;;;;14.70;8.83;;;1.10;35.40;;;;;;5011356;28;20472;-72
2023/03/02 05:06:26;;;;;;;14.53;8.70;;;0.90;36.60;;;;;;5014828;28;20750;-71
2023/03/02 05:08:52;;;;;;;15.05;8.73;;;1.00;35.70;;;;;;5015692;28;20902;-72
2023/03/02 05:11:21;;;;;;;16.10;8.88;;;1.00;35.80;;;;;;5014679;28;20388;-72
2023/03/02 05:13:52;;;;;;;14.85;8.55;;;1.10;35.30;;;;;;5014551;28;20398;-72
2023/03/02 05:16:18;;;;;;;15.82;8.60;;;1.20;34.90;;;;;;5015346;28;20775;-73
2023/03/02 05:18:44;;;;;;;17.27;8.70;;;1.00;35.30;;;;;;5016597;28;20384;-73
2023/03/02 05:21:11;;;;;;;17.95;8.80;;;1.00;35.50;;;;;;5014120;28;20901;-73
2023/03/02 05:23:36;;;;;;;15.90;9.25;;;1.10;35.20;;;;;;5014471;28;20438;-73
2023/03/02 05:26:03;;;;;;;13.57;8.80;;;1.20;35.10;;;;;;5014852;28;20408;-72
2023/03/02 05:28:28;;;;;;;13.13;7.60;;;1.20;34.80;;;;;;5014747;28;20446;-73
2023/03/02 05:30:54;;;;;;;15.37;9.27;;;1.20;34.50;;;;;;5014750;28;20941;-73
2023/03/02 05:33:20;;;;;;;17.30;9.07;;;1.10;34.30;;;;;;5014748;28;20399;-73
2023/03/02 05:35:46;;;;;;;18.40;9.30;;;0.80;35.80;;;;;;5014913;28;20412;-72
2023/03/02 05:38:12;;;;;;;15.23;8.93;;;0.60;37.60;;;;;;5014201;28;20393;-71
2023/03/02 05:40:41;;;;;;;16.40;9.00;;;0.70;37.80;;;;;;5013856;28;20745;-72
2023/03/02 05:43:07;;;;;;;13.45;8.73;;;1.00;35.60;;;;;;5014011;28;20458;-72
2023/03/02 05:45:36;;;;;;;16.17;8.80;;;1.20;34.80;;;;;;5013750;28;20915;-72
2023/03/02 05:48:03;;;;;;;15.98;8.48;;;1.30;33.80;;;;;;5013809;28;20415;-72
2023/03/02 05:50:28;;;;;;;18.05;9.70;;;1.30;33.60;;;;;;4995933;28;21066;-72
2023/03/02 05:52:54;;;;;;;16.70;9.10;;;1.10;34.20;;;;;;5013559;28;20407;-72
2023/03/02 05:55:19;;;;;;;20.55;9.70;;;1.00;35.10;;;;;;5013510;28;20389;-71
2023/03/02 05:57:48;;;;;;;17.50;9.13;;;0.90;35.50;;;;;;4996629;28;20385;-74
2023/03/02 06:00:14;;;;;;;15.77;8.40;;;0.80;36.80;;;;;;5013767;28;20393;-73
2023/03/02 06:02:40;;;;;;;13.18;7.85;;;1.10;35.60;;;;;;5013829;28;20381;-71
2023/03/02 06:05:10;;;;;;;14.35;8.80;;;1.30;34.30;;;;;;5014495;28;20392;-72
2023/03/02 06:07:36;;;;;;;15.35;8.80;;;1.20;34.20;;;;;;5013202;28;20739;-73
2023/03/02 06:10:02;;;;;;;18.27;8.23;;;1.40;33.20;;;;;;5013450;28;20580;-71
2023/03/02 06:12:27;;;;;;;15.23;7.95;;;1.40;32.90;;;;;;5013811;28;20484;-73
2023/03/02 06:14:53;;;;;;;19.80;9.20;;;1.30;33.50;;;;;;5013684;28;20528;-73
2023/03/02 06:17:19;;;;;;;14.90;8.80;;;1.20;34.30;;;;;;5013565;28;21055;-72
2023/03/02 06:19:44;;;;;;;18.23;8.82;;;1.30;33.80;;;;;;5013406;28;20862;-72
2023/03/02 06:22:10;;;;;;;15.53;9.07;;;1.40;33.20;;;;;;5013325;28;20469;-73
2023/03/02 06:24:35;;;;;;;17.53;9.43;;;1.50;32.60;;;;;;5014571;28;20389;-72
2023/03/02 06:27:01;;;;;;;17.20;9.73;;;1.60;32.40;;;;;;5016668;28;20412;-71
2023/03/02 06:29:26;;;;;;;18.15;9.15;;;1.60;32.10;;;;;;5025675;28;20404;-73
2023/03/02 06:31:52;;;;;;;15.43;9.40;;;1.50;32.80;;;;;;5013082;28;20552;-73
2023/03/02 06:34:18;;;;;;;15.30;9.23;;;1.50;32.80;;;;;;5013239;28;20396;-72
2023/03/02 06:36:43;;;;;;;19.23;8.50;;;1.60;32.60;;;;;;5023262;28;20423;-73
2023/03/02 06:39:14;;;;;;;18.97;9.90;;;1.50;33.00;;;;;;5010262;28;20408;-74
2023/03/02 06:41:47;;;;;;;20.00;10.02;;;1.50;33.20;;;;;;5015646;28;20815;-73
2023/03/02 06:44:15;;;;;;;17.98;9.50;;;1.30;34.30;;;;;;5018677;28;20446;-72
2023/03/02 06:46:41;;;;;;;16.08;9.05;;;1.10;34.80;;;;;;5018069;28;20937;-73
2023/03/02 06:49:08;;;;;;;14.68;9.70;;;1.00;35.80;;;;;;5028826;28;20530;-73
2023/03/02 06:51:34;;;;;;;18.92;9.50;;;1.10;35.30;;;;;;5024926;28;20466;-72
2023/03/02 06:54:00;;;;;;;16.95;8.82;;;1.40;34.10;;;;;;5019284;28;20789;-72
2023/03/02 06:56:26;;;;;;;19.70;8.83;;;1.60;33.20;;;;;;5010769;28;20464;-73
2023/03/02 06:58:51;;;;;;;19.70;8.90;;;1.60;32.40;;;;;;5012105;28;20403;-72
2023/03/02 07:01:17;;;;;;;16.93;8.40;;;1.60;32.60;;;;;;5015058;28;20759;-73
2023/03/02 07:03:43;;;;;;;20.10;8.93;;;1.70;32.10;;;;;;5019198;28;20392;-71
2023/03/02 07:06:11;;;;;;;22.55;9.82;;;1.70;31.80;;;;;;5032668;28;20403;-72
2023/03/02 07:08:36;;;;;;;19.25;9.27;;;1.80;31.60;;;;;;5042518;28;20423;-72
2023/03/02 07:11:10;;;;;;;19.17;10.30;;;1.80;31.90;;;;;;5043386;28;20453;-72
2023/03/02 07:13:39;;;;;;;20.55;9.80;;;1.70;32.60;;;;;;5034386;28;20387;-71
2023/03/02 07:16:09;;;;;;;18.63;9.60;;;1.90;31.70;;;;;;5032486;28;20953;-72
2023/03/02 07:18:35;;;;;;;17.70;9.23;;;1.90;31.70;;;;;;5011193;28;20493;-71
2023/03/02 07:21:01;;;;;;;17.10;9.70;;;2.10;30.70;;;;;;5010625;28;20933;-73
2023/03/02 07:23:26;;;;;;;18.30;9.00;;;2.20;30.30;;;;;;5010872;28;20467;-72
2023/03/02 07:25:52;;;;;;;18.23;8.97;;;2.20;29.80;;;;;;5027601;28;20409;-73
2023/03/02 07:28:17;;;;;;;24.00;10.07;;;2.30;30.10;;;;;;5028001;28;20389;-73
2023/03/02 07:30:43;;;;;;;18.10;9.43;;;2.30;29.30;;;;;;5011695;28;20393;-73
2023/03/02 07:33:08;;;;;;;18.77;10.05;;;2.50;29.60;;;;;;5013235;28;20420;-72
2023/03/02 07:35:34;;;;;;;16.77;8.90;;;2.60;28.70;;;;;;5015579;28;20405;-74
2023/03/02 07:37:59;;;;;;;19.15;9.85;;;2.60;28.60;;;;;;4997604;28;20411;-73
2023/03/02 07:40:25;;;;;;;18.70;9.30;;;2.70;28.30;;;;;;5011690;28;20412;-72
2023/03/02 07:42:50;;;;;;;18.97;8.57;;;2.60;29.00;;;;;;5011108;28;20471;-72
2023/03/02 07:45:19;;;;;;;17.93;9.10;;;2.70;28.30;;;;;;5010698;28;20481;-72
2023/03/02 07:47:44;;;;;;;17.15;8.73;;;2.80;28.10;;;;;;5010159;28;20396;-71
2023/03/02 07:50:10;;;;;;;23.67;9.60;;;2.90;27.40;;;;;;5010567;28;20731;-72
2023/03/02 07:52:36;;;;;;;18.95;9.90;;;2.90;26.60;;;;;;5029160;28;20387;-73
2023/03/02 07:55:01;;;;;;;15.37;9.10;;;3.00;26.40;;;;;;5028335;28;20402;-73
2023/03/02 07:57:27;;;;;;;13.93;8.57;;;2.90;25.80;;;;;;5034945;28;20411;-77
2023/03/02 07:59:52;;;;;;;20.83;9.23;;;2.90;25.70;;;;;;5023862;28;20798;-73
2023/03/02 08:02:19;;;;;;;18.70;8.70;;;3.00;25.90;;;;;;5015674;28;20761;-72
2023/03/02 08:04:45;;;;;;;19.55;8.40;;;3.00;25.70;;;;;;5020337;28;20821;-72
2023/03/02 08:07:11;;;;;;;13.68;8.40;;;3.10;27.00;;;;;;5039446;28;20391;-72
2023/03/02 08:09:37;;;;;;;16.00;9.93;;;3.20;27.10;;;;;;5035765;28;20387;-72
2023/03/02 08:12:03;;;;;;;24.30;11.95;;;3.30;26.30;;;;;;5032736;28;20760;-72
2023/03/02 08:14:30;;;;;;;20.53;10.73;;;3.40;25.20;;;;;;5032162;28;20386;-73
2023/03/02 08:16:55;;;;;;;17.30;9.03;;;3.40;25.10;;;;;;5031804;28;20956;-73
2023/03/02 08:19:21;;;;;;;13.32;8.60;;;3.50;23.90;;;;;;5012682;28;20385;-73
2023/03/02 08:21:46;;;;;;;16.60;8.77;;;3.50;23.50;;;;;;5010925;28;20397;-74
2023/03/02 08:24:12;;;;;;;15.63;8.60;;;3.60;23.20;;;;;;5011536;28;20393;-73
2023/03/02 08:26:39;;;;;;;18.98;10.73;;;3.60;23.10;;;;;;5011684;28;20432;-74
2023/03/02 08:29:05;;;;;;;19.75;10.55;;;3.60;23.70;;;;;;5012009;28;20393;-75
2023/03/02 08:31:31;;;;;;;20.85;9.27;;;3.60;24.60;;;;;;5011962;28;20388;-75
2023/03/02 08:33:58;;;;;;;17.90;10.40;;;3.90;22.50;;;;;;5012733;28;20395;-77
2023/03/02 08:36:24;;;;;;;16.38;10.00;;;3.90;22.80;;;;;;5000165;28;20912;-73
2023/03/02 08:38:50;;;;;;;19.92;9.82;;;3.90;23.40;;;;;;5030872;28;20867;-73
2023/03/02 08:41:21;;;;;;;17.80;9.83;;;4.00;22.80;;;;;;5024771;28;20436;-73
2023/03/02 08:43:48;;;;;;;17.05;9.82;;;4.20;21.70;;;;;;5011490;28;20388;-75
2023/03/02 08:46:17;;;;;;;16.77;9.80;;;4.30;21.70;;;;;;5010896;28;20384;-73
2023/03/02 08:48:43;;;;;;;22.30;10.73;;;4.40;20.50;;;;;;4993556;28;20447;-73
2023/03/02 08:51:12;;;;;;;21.27;10.27;;;4.50;20.60;;;;;;5010684;28;20393;-73
2023/03/02 08:53:40;;;;;;;22.37;10.03;;;4.40;21.10;;;;;;5011053;28;20412;-73
2023/03/02 08:56:23;;;;;;;20.10;11.30;;;4.70;20.50;;;;;;5010830;28;20431;-73
2023/03/02 08:58:50;;;;;;;14.98;9.70;;;4.70;21.50;;;;;;5012143;28;20387;-75
2023/03/02 09:01:21;;;;;;;17.67;9.50;;;5.00;19.70;;;;;;5011528;28;20389;-74
2023/03/02 09:03:47;;;;;;;23.27;10.00;;;5.00;19.00;;;;;;5011919;28;20376;-74
2023/03/02 09:06:13;;;;;;;24.33;9.10;;;5.00;18.90;;;;;;5011412;28;20438;-74
2023/03/02 09:08:39;;;;;;;22.50;10.82;;;5.00;18.60;;;;;;5011181;28;20435;-74
2023/03/02 09:11:05;;;;;;;16.38;9.20;;;5.10;19.20;;;;;;5011384;28;20388;-74
2023/03/02 09:13:31;;;;;;;14.95;8.98;;;5.20;18.10;;;;;;5011148;28;20393;-75
2023/03/02 09:15:57;;;;;;;18.90;10.20;;;5.30;18.30;;;;;;5011558;28;20405;-73
2023/03/02 09:18:22;;;;;;;17.70;8.82;;;5.30;18.20;;;;;;5011219;28;20435;-74
2023/03/02 09:20:52;;;;;;;14.65;9.43;;;5.30;17.90;;;;;;4993257;28;20498;-74
2023/03/02 09:23:19;;;;;;;18.38;9.00;;;5.30;18.10;;;;;;5012177;28;20392;-73
2023/03/02 09:25:46;;;;;;;17.70;9.65;;;5.40;18.10;;;;;;4993967;28;20395;-74
2023/03/02 09:28:12;;;;;;;23.23;11.60;;;5.40;17.90;;;;;;5011455;28;20388;-73
2023/03/02 09:30:37;;;;;;;20.03;9.47;;;5.60;18.20;;;;;;5010811;28;20952;-73
2023/03/02 09:33:03;;;;;;;15.40;9.60;;;5.70;17.70;;;;;;5011292;28;20393;-75
2023/03/02 09:35:28;;;;;;;15.00;9.07;;;5.70;17.10;;;;;;5011376;28;20381;-72
2023/03/02 09:37:54;;;;;;;17.23;8.93;;;5.60;17.00;;;;;;5011994;28;20464;-75
2023/03/02 09:40:22;;;;;;;19.23;10.30;;;5.60;16.90;;;;;;5011047;28;20385;-74
2023/03/02 09:43:06;;;;;;;22.05;12.13;;;5.70;17.50;;;;;;5010408;28;20446;-75
2023/03/02 09:45:54;;;;;;;17.60;9.30;;;5.80;17.90;;;;;;5010519;28;20381;-72
2023/03/02 09:48:56;;;;;;;19.58;9.68;;;5.90;16.60;;;;;;5014792;28;20399;-75
2023/03/02 09:52:03;;;;;;;18.50;10.35;;;5.90;16.50;;;;;;5019782;28;20396;-74
2023/03/02 09:54:29;;;;;;;15.10;9.45;;;5.90;17.50;;;;;;4995118;28;20399;-75
2023/03/02 09:56:57;;;;;;;17.93;9.67;;;6.00;16.40;;;;;;4995543;28;20486;-74
2023/03/02 09:59:40;;;;;;;15.40;9.00;;;6.10;16.80;;;;;;5023747;28;20391;-73
2023/03/02 10:02:24;;;;;;;16.77;9.60;;;6.10;16.50;;;;;;5022489;28;20398;-73
2023/03/02 10:04:53;;;;;;;16.35;8.60;;;6.10;16.20;;;;;;5016069;28;20877;-76
2023/03/02 10:07:31;;;;;;;19.43;9.83;;;6.10;16.00;;;;;;5015141;28;20389;-73
2023/03/02 10:10:05;;;;;;;20.50;9.63;;;6.20;16.00;;;;;;5014959;28;20480;-74
2023/03/02 10:12:43;;;;;;;17.00;8.82;;;6.20;15.60;;;;;;5015814;28;20480;-75
2023/03/02 10:15:31;;;;;;;18.70;10.45;;;6.20;15.50;;;;;;5015453;28;20411;-74
2023/03/02 10:18:15;;;;;;;22.25;12.48;;;6.20;16.20;;;;;;5014882;28;20397;-76
2023/03/02 10:20:48;;;;;;;18.40;9.68;;;6.40;17.60;;;;;;5015350;28;20376;-75
2023/03/02 10:23:35;;;;;;;18.75;9.60;;;6.50;15.00;;;;;;5020630;28;20408;-74
2023/03/02 10:26:33;;;;;;;16.38;8.77;;;6.40;14.90;;;;;;5016687;28;20408;-75
2023/03/02 10:29:10;;;;;;;23.88;13.18;;;6.50;15.00;;;;;;5016463;28;20410;-74
2023/03/02 10:31:39;;;;;;;25.20;10.32;;;6.60;16.30;;;;;;5014549;28;20400;-73
2023/03/02 10:34:07;;;;;;;17.23;8.43;;;6.90;15.40;;;;;;5013602;28;20451;-73
2023/03/02 10:36:42;;;;;;;18.10;9.70;;;6.90;14.20;;;;;;5016638;28;20419;-75
2023/03/02 10:39:14;;;;;;;16.58;9.70;;;7.00;14.20;;;;;;5014377;28;20849;-75
2023/03/02 10:41:48;;;;;;;24.47;10.10;;;7.00;14.10;;;;;;5014798;28;20396;-74
2023/03/02 10:44:21;;;;;;;21.00;10.30;;;7.00;14.70;;;;;;5016981;28;20422;-74
2023/03/02 10:46:47;;;;;;;21.52;10.05;;;7.20;14.50;;;;;;5015586;28;21011;-74
2023/03/02 10:49:35;;;;;;;20.10;10.80;;;7.30;14.20;;;;;;5015052;28;20393;-74
2023/03/02 10:52:04;;;;;;;20.52;10.05;;;7.40;14.60;;;;;;5012481;28;20462;-74
2023/03/02 10:54:32;;;;;;;16.83;10.60;;;7.60;13.30;;;;;;4995726;28;20393;-73
2023/03/02 10:57:00;;;;;;;26.33;10.77;;;7.60;13.70;;;;;;5015482;28;20409;-74
2023/03/02 10:59:42;;;;;;;19.40;10.10;;;7.80;14.10;;;;;;5012824;28;20381;-75
2023/03/02 11:02:23;;;;;;;18.63;10.45;;;7.80;13.70;;;;;;5011331;28;20381;-75
2023/03/02 11:04:54;;;;;;;16.80;9.98;;;7.80;12.70;;;;;;5012733;28;20384;-74
2023/03/02 11:07:23;;;;;;;18.63;10.38;;;7.80;13.00;;;;;;5013657;28;20422;-76
2023/03/02 11:10:05;;;;;;;19.38;10.10;;;8.00;13.40;;;;;;4996579;28;20479;-74
2023/03/02 11:12:34;;;;;;;19.20;10.85;;;8.10;13.10;;;;;;5012923;28;20419;-74
2023/03/02 11:15:21;;;;;;;18.52;8.88;;;8.10;12.80;;;;;;4995649;28;20475;-73
2023/03/02 11:18:04;;;;;;;18.08;9.77;;;8.10;12.30;;;;;;5013896;28;20525;-73
2023/03/02 11:20:37;;;;;;;17.30;9.57;;;8.10;12.30;;;;;;5016201;28;20396;-74
2023/03/02 11:23:28;;;;;;;17.05;9.43;;;8.20;13.00;;;;;;5013778;28;20423;-74
2023/03/02 11:26:04;;;;;;;15.23;9.23;;;8.20;12.00;;;;;;5012748;28;20404;-75
2023/03/02 11:28:40;;;;;;;17.52;10.02;;;8.20;11.80;;;;;;5013025;28;20384;-74
2023/03/02 11:31:15;;;;;;;18.92;8.90;;;8.30;12.30;;;;;;4995805;28;20424;-74
2023/03/02 11:34:01;;;;;;;13.90;9.10;;;8.40;11.80;;;;;;5013675;28;20408;-74
2023/03/02 11:36:44;;;;;;;17.23;10.50;;;8.40;10.50;;;;;;5014415;28;20457;-74
2023/03/02 11:39:16;;;;;;;14.90;8.33;;;8.40;11.50;;;;;;5015585;28;20450;-75
2023/03/02 11:41:42;;;;;;;15.40;8.68;;;8.40;10.10;;;;;;5013785;28;20384;-76
2023/03/02 11:44:19;;;;;;;15.75;9.20;;;8.30;10.80;;;;;;5012747;28;20431;-75
2023/03/02 11:46:49;;;;;;;16.38;8.02;;;8.50;10.60;;;;;;5014865;28;20950;-76
2023/03/02 11:49:22;;;;;;;17.13;8.65;;;8.50;10.00;;;;;;5017271;28;20484;-75
2023/03/02 11:51:56;;;;;;;15.82;9.38;;;8.60;10.50;;;;;;5017229;28;20927;-75
2023/03/02 11:54:33;;;;;;;17.90;8.38;;;8.70;11.10;;;;;;5015841;28;20377;-75
2023/03/02 11:57:00;;;;;;;19.65;10.60;;;8.80;10.10;;;;;;5016118;28;20408;-76
2023/03/02 11:59:26;;;;;;;14.10;8.57;;;9.00;10.30;;;;;;5016813;28;20391;-75
2023/03/02 12:01:53;;;;;;;16.75;9.25;;;9.10;9.40;;;;;;5014374;28;20447;-75
2023/03/02 12:04:27;;;;;;;13.45;7.93;;;9.10;9.60;;;;;;5014913;28;20420;-75
2023/03/02 12:06:52;;;;;;;13.55;7.68;;;9.10;8.90;;;;;;5015112;28;20417;-76
2023/03/02 12:09:33;;;;;;;15.70;8.40;;;9.00;9.50;;;;;;5011621;28;20419;-76
2023/03/02 12:12:25;;;;;;;19.00;9.60;;;9.00;9.00;;;;;;4994933;28;20392;-76
2023/03/02 12:14:51;;;;;;;20.90;10.02;;;9.10;10.50;;;;;;5011990;28;20479;-76
2023/03/02 12:17:25;;;;;;;17.83;8.90;;;9.30;9.60;;;;;;4994514;28;20906;-74
2023/03/02 12:20:06;;;;;;;19.67;9.40;;;9.40;8.90;;;;;;5022127;28;20397;-75
2023/03/02 12:22:32;;;;;;;19.50;9.93;;;9.40;9.00;;;;;;5014503;28;20475;-75
2023/03/02 12:25:17;;;;;;;17.48;10.23;;;9.40;10.00;;;;;;5010697;28;20401;-76
2023/03/02 12:27:44;;;;;;;21.97;9.50;;;9.50;10.50;;;;;;4995691;28;20511;-76
2023/03/02 12:30:26;;;;;;;24.65;9.18;;;9.50;9.50;;;;;;5013638;28;20429;-75
2023/03/02 12:33:00;;;;;;;18.00;8.88;;;9.60;8.70;;;;;;5014780;28;20478;-74
2023/03/02 12:35:28;;;;;;;14.45;8.38;;;9.70;8.80;;;;;;5031373;28;20442;-76
2023/03/02 12:37:59;;;;;;;13.95;7.70;;;9.70;9.70;;;;;;5029913;28;20494;-76
2023/03/02 12:40:43;;;;;;;14.73;7.80;;;9.90;8.00;;;;;;5017140;28;20407;-75
2023/03/02 12:43:25;;;;;;;15.25;8.35;;;9.90;7.60;;;;;;5013123;28;21081;-75
2023/03/02 12:46:09;;;;;;;13.90;8.30;;;9.90;8.60;;;;;;5033913;28;20468;-75
2023/03/02 12:49:06;;;;;;;19.55;7.70;;;9.90;8.20;;;;;;5033288;28;20407;-75
2023/03/02 12:51:48;;;;;;;14.02;7.28;;;9.90;8.20;;;;;;5024988;28;20420;-75
2023/03/02 12:54:20;;;;;;;17.20;8.27;;;9.80;7.20;;;;;;5011686;28;20866;-75
2023/03/02 12:56:46;;;;;;;16.45;8.70;;;9.90;7.50;;;;;;5020651;28;20457;-75